Time;durP1;ratioP1;P1;durP2;ratioP2;P2;SDS_P1;SDS_P2;PMS_P1;PMS_P2;Temp;Humidity;BMP_temperature;BMP_pressure;BME280_temperature;BME280_humidity;BME280_pressure;Samples;Min_cycle;Max_cycle;Signal;HPM_P1;HPM_P2
2023/07/17 00:01:37;;;;;;;4.90;1.50;;;17.50;99.90;;;;;;5027556;28;20136;-69
2023/07/17 00:04:03;;;;;;;8.77;1.98;;;17.50;99.90;;;;;;5028426;28;20049;-68
2023/07/17 00:06:29;;;;;;;9.80;1.42;;;17.50;99.90;;;;;;5032763;28;20063;-69
2023/07/17 00:08:55;;;;;;;8.05;1.27;;;17.50;99.90;;;;;;5027964;28;20047;-69
2023/07/17 00:11:21;;;;;;;7.22;1.45;;;17.50;99.90;;;;;;5034731;28;20116;-69
2023/07/17 00:13:47;;;;;;;8.18;1.77;;;17.50;99.90;;;;;;5025483;28;20132;-69
2023/07/17 00:16:12;;;;;;;6.47;1.38;;;17.50;99.90;;;;;;5047413;28;20049;-69
2023/07/17 00:18:38;;;;;;;6.63;1.35;;;17.60;99.90;;;;;;5037779;28;20044;-68
2023/07/17 00:21:05;;;;;;;4.82;1.30;;;17.60;99.90;;;;;;5044068;28;20061;-69
2023/07/17 00:23:31;;;;;;;10.25;1.48;;;17.60;99.90;;;;;;5050166;28;20510;-69
2023/07/17 00:25:58;;;;;;;5.70;1.20;;;17.60;99.90;;;;;;5049658;28;20041;-69
2023/07/17 00:28:23;;;;;;;4.85;1.73;;;17.60;99.90;;;;;;5025191;28;20083;-68
2023/07/17 00:30:49;;;;;;;5.47;1.30;;;17.60;99.90;;;;;;5022429;28;20449;-69
2023/07/17 00:33:15;;;;;;;6.00;1.73;;;17.60;99.90;;;;;;5041888;28;20033;-68
2023/07/17 00:35:41;;;;;;;5.70;1.33;;;17.60;99.90;;;;;;5050007;28;20072;-68
2023/07/17 00:38:07;;;;;;;8.70;1.90;;;17.60;99.90;;;;;;5030836;28;20045;-69
2023/07/17 00:40:34;;;;;;;5.45;1.40;;;17.60;99.90;;;;;;5044733;28;20479;-69
2023/07/17 00:43:01;;;;;;;7.30;1.10;;;17.60;99.90;;;;;;5031012;28;20037;-69
2023/07/17 00:45:36;;;;;;;4.38;1.55;;;17.60;99.90;;;;;;5032262;28;20052;-69
2023/07/17 00:48:03;;;;;;;5.32;1.27;;;17.60;99.90;;;;;;5030328;28;20045;-69
2023/07/17 00:50:30;;;;;;;6.85;1.42;;;17.60;99.90;;;;;;5045887;28;20118;-69
2023/07/17 00:52:56;;;;;;;6.82;1.25;;;17.50;99.90;;;;;;5028809;28;20389;-69
2023/07/17 00:55:22;;;;;;;6.43;1.38;;;17.50;99.90;;;;;;5049510;28;20246;-69
2023/07/17 00:57:50;;;;;;;6.35;1.52;;;17.50;99.90;;;;;;5037432;28;20052;-68
2023/07/17 01:00:18;;;;;;;5.63;1.40;;;17.50;99.90;;;;;;5040854;28;20041;-69
2023/07/17 01:02:44;;;;;;;4.13;1.58;;;17.50;99.90;;;;;;5041282;28;20431;-69
2023/07/17 01:05:10;;;;;;;3.45;1.00;;;17.40;99.90;;;;;;5025996;28;20205;-69
2023/07/17 01:07:39;;;;;;;5.78;1.30;;;17.40;99.90;;;;;;5031718;28;20525;-69
2023/07/17 01:10:06;;;;;;;6.75;1.70;;;17.40;99.90;;;;;;5018351;28;20121;-69
2023/07/17 01:12:34;;;;;;;4.65;1.48;;;17.40;99.90;;;;;;5037606;28;20047;-69
2023/07/17 01:15:01;;;;;;;4.78;1.17;;;17.40;99.90;;;;;;5031003;28;20065;-69
2023/07/17 01:17:26;;;;;;;;;;;17.30;99.90;;;;;;5045440;28;20064;-69
2023/07/17 01:19:52;;;;;;;3.78;1.10;;;17.30;99.90;;;;;;5037583;28;19936;-69
2023/07/17 01:22:21;;;;;;;4.97;1.20;;;17.20;99.90;;;;;;5042740;28;20041;-69
2023/07/17 01:24:46;;;;;;;4.60;1.20;;;17.20;99.90;;;;;;5049223;28;20037;-69
2023/07/17 01:27:12;;;;;;;7.22;1.60;;;17.10;99.90;;;;;;5020748;28;20055;-69
2023/07/17 01:29:38;;;;;;;4.80;1.55;;;17.10;99.90;;;;;;5043563;28;20076;-69
2023/07/17 01:32:04;;;;;;;2.83;1.10;;;17.00;99.90;;;;;;5040556;28;20076;-69
2023/07/17 01:34:30;;;;;;;;;;;17.00;99.90;;;;;;5041153;28;20044;-69
2023/07/17 01:36:56;;;;;;;7.47;1.48;;;17.00;99.90;;;;;;5040615;28;20359;-69
2023/07/17 01:39:24;;;;;;;8.40;1.88;;;16.90;99.90;;;;;;5031000;28;20131;-68
2023/07/17 01:41:50;;;;;;;8.65;1.98;;;16.80;99.90;;;;;;5040756;28;20118;-69
2023/07/17 01:44:16;;;;;;;5.35;1.45;;;16.80;99.90;;;;;;5018455;28;20185;-69
2023/07/17 01:46:41;;;;;;;4.55;1.27;;;16.80;99.90;;;;;;5025229;28;20551;-68
2023/07/17 01:49:07;;;;;;;6.25;1.45;;;16.80;99.90;;;;;;5030284;28;20051;-69
2023/07/17 01:51:33;;;;;;;3.42;1.45;;;16.70;99.90;;;;;;5031046;28;20059;-69
2023/07/17 01:53:59;;;;;;;4.35;1.60;;;16.70;99.90;;;;;;5041071;28;20034;-69
2023/07/17 01:56:25;;;;;;;4.88;1.55;;;16.70;99.90;;;;;;5013992;28;20057;-69
2023/07/17 01:58:51;;;;;;;6.20;1.45;;;16.70;99.90;;;;;;5048337;28;20404;-69
2023/07/17 02:01:17;;;;;;;4.93;1.60;;;16.60;99.90;;;;;;5030189;28;20087;-69
2023/07/17 02:03:42;;;;;;;5.05;1.80;;;16.60;99.90;;;;;;5023116;28;20048;-69
2023/07/17 02:06:08;;;;;;;5.30;1.70;;;16.50;99.90;;;;;;5030209;28;20049;-69
2023/07/17 02:08:34;;;;;;;5.30;1.55;;;16.60;99.90;;;;;;5029851;28;20039;-69
2023/07/17 02:11:00;;;;;;;2.25;0.88;;;16.50;99.90;;;;;;5041738;28;20048;-69
2023/07/17 02:13:25;;;;;;;8.13;1.83;;;16.50;99.90;;;;;;5040739;28;20037;-69
2023/07/17 02:15:51;;;;;;;6.53;1.42;;;16.50;99.90;;;;;;5030630;28;20495;-69
2023/07/17 02:18:17;;;;;;;4.78;1.38;;;16.50;99.90;;;;;;5028352;28;20565;-69
2023/07/17 02:20:43;;;;;;;6.35;1.73;;;16.50;99.90;;;;;;5048094;28;20482;-69
2023/07/17 02:23:08;;;;;;;6.75;1.38;;;16.40;99.90;;;;;;5021166;28;20076;-69
2023/07/17 02:25:34;;;;;;;7.20;1.95;;;16.50;99.90;;;;;;5047898;28;20511;-69
2023/07/17 02:28:00;;;;;;;9.70;2.40;;;16.40;99.90;;;;;;5020855;28;20037;-69
2023/07/17 02:30:26;;;;;;;8.27;1.45;;;16.40;99.90;;;;;;5047548;28;20041;-69
2023/07/17 02:32:51;;;;;;;6.90;1.73;;;16.40;99.90;;;;;;5029379;28;20475;-69
2023/07/17 02:35:17;;;;;;;7.70;2.00;;;16.40;99.90;;;;;;5018896;28;20049;-69
2023/07/17 02:37:43;;;;;;;6.50;1.65;;;16.40;99.90;;;;;;5024452;28;20060;-69
2023/07/17 02:40:12;;;;;;;6.10;1.88;;;16.40;99.90;;;;;;5029500;28;20056;-69
2023/07/17 02:42:39;;;;;;;4.82;1.77;;;16.30;99.90;;;;;;5029439;28;20365;-69
2023/07/17 02:45:08;;;;;;;4.32;1.50;;;16.30;99.90;;;;;;5026225;28;20053;-69
2023/07/17 02:47:33;;;;;;;6.45;1.20;;;16.30;99.90;;;;;;5047290;28;20044;-69
2023/07/17 02:49:59;;;;;;;6.15;1.48;;;16.30;99.90;;;;;;5029643;28;20552;-69
2023/07/17 02:52:25;;;;;;;7.60;2.53;;;16.30;99.90;;;;;;5029329;28;20483;-69
2023/07/17 02:54:51;;;;;;;6.88;1.70;;;16.30;99.90;;;;;;5025985;28;20079;-68
2023/07/17 02:57:17;;;;;;;3.03;1.27;;;16.20;99.90;;;;;;5028790;28;20095;-69
2023/07/17 02:59:42;;;;;;;5.28;1.65;;;16.20;99.90;;;;;;5048073;28;20044;-69
2023/07/17 03:02:08;;;;;;;8.50;1.55;;;16.20;99.90;;;;;;5040395;28;20048;-69
2023/07/17 03:04:34;;;;;;;5.43;2.13;;;16.20;99.90;;;;;;5028971;28;20120;-69
2023/07/17 03:07:00;;;;;;;8.90;1.33;;;16.20;99.90;;;;;;5047656;28;20041;-69
2023/07/17 03:09:28;;;;;;;8.23;1.85;;;16.20;99.90;;;;;;5021459;28;20102;-69
2023/07/17 03:11:55;;;;;;;9.00;2.30;;;16.20;99.90;;;;;;5035982;28;20129;-69
2023/07/17 03:14:21;;;;;;;8.38;2.13;;;16.20;99.90;;;;;;5047109;28;20156;-69
2023/07/17 03:16:46;;;;;;;6.15;1.88;;;16.20;99.90;;;;;;5028436;28;20525;-69
2023/07/17 03:19:12;;;;;;;7.95;2.00;;;16.20;99.90;;;;;;5027761;28;20053;-69
2023/07/17 03:21:38;;;;;;;7.03;1.83;;;16.10;99.90;;;;;;5047665;28;20048;-69
2023/07/17 03:24:04;;;;;;;14.23;2.20;;;16.10;99.90;;;;;;5032284;28;20480;-69
2023/07/17 03:26:30;;;;;;;5.53;2.22;;;16.10;99.90;;;;;;5048284;28;20447;-69
2023/07/17 03:28:56;;;;;;;8.23;1.80;;;16.10;99.90;;;;;;5016232;28;20052;-69
2023/07/17 03:31:21;;;;;;;9.18;2.17;;;16.00;99.90;;;;;;5049770;28;20518;-69
2023/07/17 03:33:47;;;;;;;4.88;1.77;;;16.10;99.90;;;;;;5050402;28;20690;-69
2023/07/17 03:36:13;;;;;;;6.82;1.65;;;16.00;99.90;;;;;;5025898;28;20047;-69
2023/07/17 03:38:40;;;;;;;8.80;2.55;;;16.00;99.90;;;;;;5032581;28;20047;-69
2023/07/17 03:41:06;;;;;;;8.32;2.00;;;16.00;99.90;;;;;;5050431;28;20187;-69
2023/07/17 03:43:32;;;;;;;7.70;2.22;;;16.00;99.90;;;;;;5049649;28;20095;-69
2023/07/17 03:45:57;;;;;;;7.55;2.35;;;16.00;99.90;;;;;;5039604;22;20064;-70
2023/07/17 03:48:23;;;;;;;7.63;2.28;;;16.00;99.90;;;;;;5029066;28;20033;-70
2023/07/17 03:50:49;;;;;;;6.80;2.00;;;16.00;99.90;;;;;;5029513;28;20045;-70
2023/07/17 03:53:15;;;;;;;12.15;1.95;;;16.00;99.90;;;;;;5027061;28;20077;-70
2023/07/17 03:55:40;;;;;;;11.75;2.60;;;16.00;99.90;;;;;;5009324;28;20045;-70
2023/07/17 03:58:07;;;;;;;9.50;2.40;;;16.00;99.90;;;;;;5022293;28;20092;-70
2023/07/17 04:00:33;;;;;;;11.90;2.40;;;16.00;99.90;;;;;;5029668;28;20055;-70
2023/07/17 04:02:58;;;;;;;10.80;2.05;;;16.00;99.90;;;;;;5025264;28;20080;-71
2023/07/17 04:05:24;;;;;;;10.63;2.53;;;16.00;99.90;;;;;;5003769;28;20432;-71
2023/07/17 04:07:50;;;;;;;8.25;2.05;;;16.00;99.90;;;;;;5029299;28;20080;-71
2023/07/17 04:10:16;;;;;;;;;;;16.00;99.90;;;;;;4994963;28;20052;-70
2023/07/17 04:12:42;;;;;;;7.45;1.73;;;15.90;99.90;;;;;;5024279;28;20398;-70
2023/07/17 04:15:09;;;;;;;11.02;2.28;;;15.90;99.90;;;;;;5027170;28;20037;-70
2023/07/17 04:17:35;;;;;;;9.00;2.38;;;15.90;99.90;;;;;;5029305;28;20405;-70
2023/07/17 04:20:02;;;;;;;5.40;1.90;;;15.90;99.90;;;;;;5011511;28;20128;-70
2023/07/17 04:22:28;;;;;;;10.88;2.25;;;15.90;99.90;;;;;;5009043;28;20057;-70
2023/07/17 04:24:53;;;;;;;7.28;2.08;;;15.90;99.90;;;;;;5027968;28;20034;-70
2023/07/17 04:27:19;;;;;;;7.72;1.98;;;15.90;99.90;;;;;;5010630;28;20335;-70
2023/07/17 04:29:45;;;;;;;6.72;1.75;;;15.90;99.90;;;;;;5009653;28;20113;-70
2023/07/17 04:32:10;;;;;;;6.88;1.88;;;15.90;99.90;;;;;;5021700;28;20073;-70
2023/07/17 04:34:36;;;;;;;6.53;2.08;;;15.90;99.90;;;;;;5003900;28;20045;-70
2023/07/17 04:37:02;;;;;;;7.35;1.95;;;15.90;99.90;;;;;;5010836;28;20657;-70
2023/07/17 04:39:28;;;;;;;11.45;2.67;;;15.90;99.90;;;;;;5007642;28;20049;-70
2023/07/17 04:41:56;;;;;;;10.63;2.15;;;15.90;99.90;;;;;;4999894;28;20041;-70
2023/07/17 04:44:22;;;;;;;9.45;1.90;;;15.90;99.90;;;;;;5010608;28;20034;-70
2023/07/17 04:46:47;;;;;;;7.85;2.00;;;15.90;99.90;;;;;;5010551;28;20091;-70
2023/07/17 04:49:13;;;;;;;10.20;2.33;;;16.00;99.90;;;;;;4992934;28;20053;-70
2023/07/17 04:51:39;;;;;;;7.75;2.28;;;16.00;99.90;;;;;;5021736;28;20116;-70
2023/07/17 04:54:04;;;;;;;5.75;2.08;;;16.00;99.90;;;;;;5026898;28;20041;-70
2023/07/17 04:56:30;;;;;;;7.03;1.83;;;16.00;99.90;;;;;;5010269;28;20483;-70
2023/07/17 04:58:57;;;;;;;8.02;2.40;;;16.00;99.90;;;;;;5026308;28;20398;-70
2023/07/17 05:01:23;;;;;;;8.20;2.22;;;16.10;99.90;;;;;;5010526;28;20048;-70
2023/07/17 05:03:49;;;;;;;12.00;2.85;;;16.00;99.90;;;;;;5002604;28;20041;-70
2023/07/17 05:06:15;;;;;;;;;;;16.10;99.90;;;;;;5004417;28;20380;-70
2023/07/17 05:08:41;;;;;;;6.13;2.00;;;16.20;99.90;;;;;;5026588;28;19928;-70
2023/07/17 05:11:07;;;;;;;15.32;2.97;;;16.20;99.90;;;;;;5008449;28;20103;-70
2023/07/17 05:13:32;;;;;;;15.98;1.80;;;16.30;99.90;;;;;;5002065;28;20132;-70
2023/07/17 05:15:58;;;;;;;9.00;2.55;;;16.40;99.90;;;;;;5019576;28;20037;-70
2023/07/17 05:18:24;;;;;;;7.68;2.38;;;16.40;99.90;;;;;;5010001;28;20388;-70
2023/07/17 05:20:51;;;;;;;7.20;2.33;;;16.50;99.90;;;;;;5028336;28;20678;-70
2023/07/17 05:23:17;;;;;;;11.65;2.50;;;16.60;99.90;;;;;;5004135;28;20049;-70
2023/07/17 05:25:53;;;;;;;9.73;2.40;;;16.60;99.90;;;;;;5027692;28;20280;-70
2023/07/17 05:28:18;;;;;;;9.52;2.83;;;16.60;99.90;;;;;;5027633;28;20088;-70
2023/07/17 05:30:44;;;;;;;9.68;2.75;;;16.60;99.90;;;;;;5008117;28;20073;-70
2023/07/17 05:33:10;;;;;;;11.68;2.58;;;16.70;99.90;;;;;;5021255;28;20191;-70
2023/07/17 05:35:36;;;;;;;14.70;3.17;;;16.70;99.90;;;;;;5027448;28;20513;-70
2023/07/17 05:38:01;;;;;;;11.23;3.03;;;16.70;99.90;;;;;;5009721;28;20435;-70
2023/07/17 05:40:27;;;;;;;13.65;3.42;;;16.80;99.90;;;;;;5024588;28;20132;-70
2023/07/17 05:42:53;;;;;;;9.38;3.10;;;16.80;99.90;;;;;;5017701;28;20069;-70
2023/07/17 05:45:18;;;;;;;14.02;3.17;;;16.90;99.90;;;;;;5026318;28;20524;-71
2023/07/17 05:47:44;;;;;;;12.35;2.90;;;17.00;99.90;;;;;;5008079;28;20121;-70
2023/07/17 05:50:11;;;;;;;13.05;3.47;;;17.00;99.90;;;;;;5024488;28;20030;-70
2023/07/17 05:52:36;;;;;;;8.75;2.83;;;17.00;99.90;;;;;;5027417;28;20050;-70
2023/07/17 05:55:03;;;;;;;10.40;3.63;;;17.00;99.90;;;;;;5026935;28;20053;-71
2023/07/17 05:57:29;;;;;;;17.10;3.85;;;17.00;99.90;;;;;;5025953;28;20046;-70
2023/07/17 05:59:55;;;;;;;7.72;2.95;;;17.10;99.90;;;;;;5020031;28;20113;-70
2023/07/17 06:02:20;;;;;;;13.57;3.67;;;17.10;99.90;;;;;;5026857;28;20033;-70
2023/07/17 06:04:46;;;;;;;8.60;3.53;;;17.20;99.90;;;;;;5027093;28;20073;-70
2023/07/17 06:07:13;;;;;;;13.45;3.28;;;17.30;99.90;;;;;;5026599;28;20073;-70
2023/07/17 06:09:39;;;;;;;12.77;3.90;;;17.30;99.90;;;;;;5021857;28;20037;-70
2023/07/17 06:12:05;;;;;;;14.60;3.65;;;17.30;99.90;;;;;;5007120;28;20049;-70
2023/07/17 06:14:31;;;;;;;11.70;3.20;;;17.40;99.90;;;;;;5024733;28;20057;-70
2023/07/17 06:16:57;;;;;;;15.00;3.20;;;17.50;99.90;;;;;;5026217;28;20404;-70
2023/07/17 06:19:23;;;;;;;16.52;3.00;;;17.60;99.90;;;;;;5007991;28;20100;-70
2023/07/17 06:21:49;;;;;;;11.27;3.28;;;17.60;99.90;;;;;;5023891;28;20104;-70
2023/07/17 06:24:14;;;;;;;10.85;3.63;;;17.60;99.90;;;;;;5007079;28;20076;-70
2023/07/17 06:26:41;;;;;;;9.57;3.17;;;17.70;99.90;;;;;;5023291;28;20100;-70
2023/07/17 06:29:09;;;;;;;15.90;3.40;;;17.70;99.90;;;;;;5024924;28;20092;-71
2023/07/17 06:31:35;;;;;;;12.88;3.42;;;17.60;99.90;;;;;;5026200;28;20041;-71
2023/07/17 06:34:01;;;;;;;9.70;2.90;;;17.60;99.90;;;;;;5008640;28;20203;-74
2023/07/17 06:36:27;;;;;;;7.15;2.50;;;17.60;99.90;;;;;;5007112;28;20115;-70
2023/07/17 06:38:52;;;;;;;11.80;3.42;;;17.60;99.90;;;;;;5002907;28;20365;-70
2023/07/17 06:41:18;;;;;;;9.50;3.47;;;17.50;99.90;;;;;;5005080;28;20124;-70
2023/07/17 06:43:44;;;;;;;7.70;3.13;;;17.50;99.90;;;;;;5003744;28;20076;-70
2023/07/17 06:46:10;;;;;;;13.02;2.85;;;17.40;99.90;;;;;;5026253;28;20104;-70
2023/07/17 06:48:36;;;;;;;8.07;2.97;;;17.40;99.90;;;;;;5020374;28;20424;-70
2023/07/17 06:51:04;;;;;;;5.88;3.00;;;17.30;99.90;;;;;;5020402;28;20038;-70
2023/07/17 06:53:31;;;;;;;7.25;2.92;;;17.30;99.90;;;;;;5004397;28;20131;-70
2023/07/17 06:55:58;;;;;;;8.35;2.60;;;17.20;99.90;;;;;;5021447;28;20099;-71
2023/07/17 06:58:24;;;;;;;8.45;2.55;;;17.20;99.90;;;;;;5029100;28;20048;-70
2023/07/17 07:00:55;;;;;;;11.65;2.88;;;17.10;99.90;;;;;;5024304;28;20053;-70
2023/07/17 07:03:21;;;;;;;7.00;2.50;;;17.10;99.90;;;;;;5010048;28;20045;-70
2023/07/17 07:06:01;;;;;;;11.40;3.22;;;17.00;99.90;;;;;;5021974;28;20047;-70
2023/07/17 07:08:29;;;;;;;5.90;2.38;;;17.00;99.90;;;;;;5028847;28;20075;-70
2023/07/17 07:10:56;;;;;;;6.35;2.25;;;16.90;99.90;;;;;;5004129;28;20045;-70
2023/07/17 07:13:22;;;;;;;8.23;2.70;;;16.90;99.90;;;;;;5011183;28;20033;-70
2023/07/17 07:15:49;;;;;;;10.00;2.97;;;16.90;99.90;;;;;;5030978;28;20184;-70
2023/07/17 07:18:15;;;;;;;7.35;2.78;;;17.00;99.90;;;;;;5024636;28;20038;-70
2023/07/17 07:20:41;;;;;;;;;;;17.10;99.90;;;;;;4997253;28;20386;-70
2023/07/17 07:23:06;;;;;;;7.80;2.65;;;17.30;99.90;;;;;;5025696;28;19932;-70
2023/07/17 07:25:33;;;;;;;9.70;2.40;;;17.40;99.90;;;;;;5006776;28;20131;-70
2023/07/17 07:28:00;;;;;;;6.57;2.60;;;17.50;99.90;;;;;;5028697;28;20034;-70
2023/07/17 07:30:29;;;;;;;9.95;2.83;;;17.50;99.90;;;;;;5023196;28;20700;-70
2023/07/17 07:32:54;;;;;;;10.50;2.50;;;17.60;99.90;;;;;;5012990;28;20543;-70
2023/07/17 07:35:20;;;;;;;10.80;3.33;;;17.60;99.90;;;;;;5029816;28;20125;-70
2023/07/17 07:37:46;;;;;;;7.50;2.55;;;17.70;99.90;;;;;;5026499;28;20041;-70
2023/07/17 07:40:12;;;;;;;7.38;2.40;;;17.80;99.90;;;;;;5011686;28;20148;-70
2023/07/17 07:42:42;;;;;;;8.00;2.15;;;17.90;99.90;;;;;;5029672;28;20065;-70
2023/07/17 07:45:12;;;;;;;5.40;2.38;;;17.90;99.90;;;;;;5004397;28;20084;-70
2023/07/17 07:47:41;;;;;;;7.88;2.33;;;18.00;99.90;;;;;;5029835;28;20034;-70
2023/07/17 07:50:08;;;;;;;7.97;2.75;;;18.10;99.90;;;;;;5029883;28;20033;-70
2023/07/17 07:52:34;;;;;;;13.50;2.55;;;18.20;99.90;;;;;;4995911;28;20549;-70
2023/07/17 07:54:59;;;;;;;10.40;2.72;;;18.30;99.90;;;;;;5025497;28;20045;-70
2023/07/17 07:57:25;;;;;;;7.07;2.42;;;18.40;99.90;;;;;;5028906;28;20037;-70
2023/07/17 07:59:51;;;;;;;6.65;2.70;;;18.50;99.90;;;;;;5029660;28;20037;-71
2023/07/17 08:02:17;;;;;;;7.63;2.20;;;18.60;99.90;;;;;;5026926;28;20133;-70
2023/07/17 08:04:43;;;;;;;7.72;2.50;;;18.60;99.90;;;;;;5021533;28;20121;-70
2023/07/17 08:07:10;;;;;;;6.05;2.30;;;18.70;99.90;;;;;;5028785;28;20053;-70
2023/07/17 08:09:36;;;;;;;5.40;1.70;;;18.60;99.90;;;;;;5026945;28;20045;-70
2023/07/17 08:12:02;;;;;;;9.30;1.98;;;18.60;99.90;;;;;;5026052;28;20034;-70
2023/07/17 08:14:28;;;;;;;6.13;1.77;;;18.60;99.90;;;;;;5029088;28;20057;-70
2023/07/17 08:16:54;;;;;;;5.63;1.67;;;18.50;99.90;;;;;;5011746;28;20041;-70
2023/07/17 08:19:20;;;;;;;11.30;2.38;;;18.50;99.90;;;;;;5029174;28;20507;-70
2023/07/17 08:21:46;;;;;;;6.43;1.40;;;18.50;99.90;;;;;;5003472;28;20399;-70
2023/07/17 08:24:12;;;;;;;5.47;1.35;;;18.50;99.90;;;;;;5029287;28;20045;-67
2023/07/17 08:26:38;;;;;;;7.93;2.67;;;18.50;99.90;;;;;;5010966;28;20053;-67
2023/07/17 08:29:05;;;;;;;8.55;1.80;;;18.50;99.90;;;;;;5010618;28;20072;-67
2023/07/17 08:31:32;;;;;;;6.32;2.40;;;18.40;99.90;;;;;;5021199;28;20364;-67
2023/07/17 08:34:01;;;;;;;4.85;1.55;;;18.50;99.90;;;;;;5027210;28;20288;-68
2023/07/17 08:36:31;;;;;;;4.47;1.60;;;18.50;99.90;;;;;;4989898;28;20124;-67
2023/07/17 08:38:57;;;;;;;7.05;1.92;;;18.60;99.90;;;;;;5029050;28;20138;-68
2023/07/17 08:41:24;;;;;;;;;;;18.70;99.90;;;;;;5008591;28;20159;-67
2023/07/17 08:43:50;;;;;;;6.13;1.70;;;18.70;99.90;;;;;;5010043;28;19924;-68
2023/07/17 08:46:16;;;;;;;5.50;1.63;;;18.80;99.90;;;;;;5010396;28;20047;-67
2023/07/17 08:48:45;;;;;;;6.53;1.50;;;18.90;99.90;;;;;;5010827;28;20050;-67
2023/07/17 08:51:11;;;;;;;4.32;1.73;;;18.80;99.90;;;;;;5023705;28;20029;-67
2023/07/17 08:53:43;;;;;;;8.75;1.23;;;18.90;99.90;;;;;;5009919;28;20120;-67
2023/07/17 08:56:11;;;;;;;5.10;1.25;;;18.90;99.90;;;;;;5009195;28;20061;-68
2023/07/17 08:58:37;;;;;;;6.28;1.55;;;18.90;99.90;;;;;;5019934;28;20042;-66
2023/07/17 09:01:04;;;;;;;5.60;1.42;;;18.90;99.90;;;;;;5024304;28;20124;-67
2023/07/17 09:03:34;;;;;;;3.72;1.33;;;18.80;99.90;;;;;;5028834;28;20095;-67
2023/07/17 09:06:03;;;;;;;7.00;1.40;;;18.90;99.90;;;;;;5028348;28;20053;-67
2023/07/17 09:08:29;;;;;;;6.18;1.45;;;18.90;99.90;;;;;;5008465;28;20041;-67
2023/07/17 09:11:05;;;;;;;5.43;1.02;;;19.10;99.90;;;;;;5004283;28;20038;-67
2023/07/17 09:13:39;;;;;;;3.70;1.33;;;19.20;99.90;;;;;;5020613;28;20049;-67
2023/07/17 09:16:31;;;;;;;7.15;1.58;;;19.40;99.90;;;;;;5026118;28;20440;-67
2023/07/17 09:18:57;;;;;;;7.57;1.73;;;19.60;99.90;;;;;;5000321;28;20547;-67
2023/07/17 09:21:27;;;;;;;4.63;1.45;;;19.70;99.90;;;;;;5025508;28;20159;-68
2023/07/17 09:23:55;;;;;;;5.93;1.70;;;19.80;99.90;;;;;;5010388;28;20138;-68
2023/07/17 09:26:23;;;;;;;7.40;1.50;;;19.90;99.90;;;;;;5003077;28;20042;-67
2023/07/17 09:28:56;;;;;;;4.72;1.30;;;20.10;99.90;;;;;;5029678;28;20046;-67
2023/07/17 09:31:29;;;;;;;7.32;1.75;;;20.20;99.90;;;;;;5024266;28;20272;-67
2023/07/17 09:33:57;;;;;;;3.50;1.40;;;20.30;99.90;;;;;;4995218;28;20052;-68
2023/07/17 09:36:23;;;;;;;5.20;1.40;;;20.40;99.90;;;;;;4978151;28;20045;-67
2023/07/17 09:38:51;;;;;;;7.00;1.40;;;20.40;99.90;;;;;;5027950;28;20049;-68
2023/07/17 09:41:19;;;;;;;7.43;1.58;;;20.40;99.90;;;;;;4997352;28;20038;-68
2023/07/17 09:43:52;;;;;;;4.20;1.52;;;20.50;99.90;;;;;;5025266;28;20045;-68
2023/07/17 09:46:18;;;;;;;3.28;1.10;;;20.60;99.90;;;;;;5036200;22;20592;-67
2023/07/17 09:48:44;;;;;;;8.93;1.75;;;20.60;99.90;;;;;;5007614;28;20113;-68
2023/07/17 09:51:12;;;;;;;7.28;1.55;;;20.60;99.90;;;;;;4992415;28;20441;-68
2023/07/17 09:53:40;;;;;;;7.07;1.35;;;20.60;99.90;;;;;;5021442;28;20052;-68
2023/07/17 09:56:09;;;;;;;5.43;1.38;;;20.70;99.90;;;;;;5026741;28;20055;-68
2023/07/17 09:58:37;;;;;;;7.10;1.50;;;20.60;99.90;;;;;;5011432;28;20120;-68
2023/07/17 10:01:04;;;;;;;4.25;1.35;;;20.60;99.90;;;;;;5026698;28;20045;-68
2023/07/17 10:03:32;;;;;;;5.15;1.35;;;20.50;99.90;;;;;;5021995;28;20046;-67
2023/07/17 10:05:58;;;;;;;3.70;1.20;;;20.30;99.90;;;;;;5024333;28;20065;-67
2023/07/17 10:08:28;;;;;;;7.13;1.80;;;20.30;99.90;;;;;;5025389;28;20214;-68
2023/07/17 10:10:54;;;;;;;5.47;1.42;;;20.20;99.90;;;;;;5021298;28;20048;-67
2023/07/17 10:13:20;;;;;;;4.57;1.65;;;20.20;99.90;;;;;;5024438;28;20038;-67
2023/07/17 10:15:47;;;;;;;4.55;1.25;;;20.20;99.90;;;;;;5002488;28;20526;-68
2023/07/17 10:18:13;;;;;;;7.18;1.63;;;20.20;99.90;;;;;;5026928;28;20052;-67
2023/07/17 10:20:39;;;;;;;5.55;1.48;;;20.10;99.90;;;;;;5028738;28;20140;-68
2023/07/17 10:23:25;;;;;;;6.00;1.63;;;20.00;99.90;;;;;;5009224;28;20095;-67
2023/07/17 10:25:52;;;;;;;6.00;1.65;;;19.90;99.90;;;;;;5020195;28;20487;-67
2023/07/17 10:28:35;;;;;;;2.88;1.33;;;20.00;99.90;;;;;;5022251;28;20390;-68
2023/07/17 10:31:18;;;;;;;5.40;1.58;;;20.10;99.90;;;;;;5025476;28;20038;-67
2023/07/17 10:33:49;;;;;;;3.17;1.42;;;20.30;99.90;;;;;;5010373;28;20048;-68
2023/07/17 10:36:15;;;;;;;5.32;1.50;;;20.60;99.90;;;;;;5025330;28;20041;-68
2023/07/17 10:38:42;;;;;;;7.00;1.75;;;20.70;99.90;;;;;;5022466;28;20413;-68
2023/07/17 10:41:14;;;;;;;8.02;1.80;;;20.90;99.90;;;;;;5022502;28;20053;-68
2023/07/17 10:44:17;;;;;;;3.30;1.60;;;21.00;99.90;;;;;;5006489;28;20299;-68
2023/07/17 10:46:42;;;;;;;4.75;1.45;;;21.10;99.90;;;;;;4985989;28;20061;-68
2023/07/17 10:49:10;;;;;;;6.90;2.08;;;21.00;99.90;;;;;;5026534;28;20406;-69
2023/07/17 10:51:40;;;;;;;2.75;1.20;;;21.00;99.90;;;;;;5028179;28;20053;-68
2023/07/17 10:54:06;;;;;;;5.03;1.85;;;21.10;99.90;;;;;;5008265;28;20041;-68
2023/07/17 10:56:32;;;;;;;4.55;1.60;;;21.10;99.90;;;;;;4999239;28;20123;-67
2023/07/17 10:58:59;;;;;;;6.85;1.60;;;21.10;99.90;;;;;;5010183;28;20049;-68
2023/07/17 11:01:25;;;;;;;3.53;1.38;;;21.20;99.90;;;;;;5028061;28;20052;-67
2023/07/17 11:03:50;;;;;;;;;;;21.40;99.90;;;;;;5027601;28;20200;-68
2023/07/17 11:06:17;;;;;;;4.78;1.20;;;21.50;99.90;;;;;;4981725;28;19929;-68
2023/07/17 11:08:48;;;;;;;3.28;1.48;;;21.50;99.90;;;;;;5009461;28;20041;-68
2023/07/17 11:11:15;;;;;;;3.85;1.13;;;21.60;99.90;;;;;;5025310;28;20112;-68
2023/07/17 11:13:44;;;;;;;4.68;1.10;;;21.70;99.90;;;;;;5026393;28;20041;-68
2023/07/17 11:16:11;;;;;;;6.65;1.58;;;21.90;99.90;;;;;;5027439;28;20457;-68
2023/07/17 11:18:50;;;;;;;3.50;1.13;;;22.00;99.90;;;;;;4996852;28;20373;-67
2023/07/17 11:21:19;;;;;;;5.30;1.40;;;22.20;99.90;;;;;;5027624;28;20042;-67
2023/07/17 11:23:49;;;;;;;4.78;1.23;;;22.10;99.90;;;;;;5000932;28;20053;-68
2023/07/17 11:26:33;;;;;;;6.40;1.30;;;22.10;99.90;;;;;;5008619;28;20041;-68
2023/07/17 11:29:00;;;;;;;4.00;1.35;;;21.90;99.90;;;;;;5019859;28;20037;-67
2023/07/17 11:31:32;;;;;;;7.20;1.20;;;21.90;99.90;;;;;;5024448;28;20499;-67
2023/07/17 11:34:06;;;;;;;6.07;1.50;;;22.00;99.90;;;;;;5019691;28;20041;-67
2023/07/17 11:36:43;;;;;;;22.30;1.83;;;22.00;99.90;;;;;;5024814;28;20049;-68
2023/07/17 11:39:13;;;;;;;1.55;0.63;;;21.90;99.90;;;;;;5022738;28;20121;-67
2023/07/17 11:41:49;;;;;;;2.78;0.90;;;21.80;99.90;;;;;;5009540;28;20128;-68
2023/07/17 11:44:29;;;;;;;7.45;1.88;;;21.50;99.90;;;;;;5029587;28;20049;-68
2023/07/17 11:47:06;;;;;;;4.00;1.35;;;21.40;99.90;;;;;;5009787;28;20037;-68
2023/07/17 11:49:34;;;;;;;5.07;1.45;;;21.50;99.90;;;;;;5027847;28;20033;-67
2023/07/17 11:52:00;;;;;;;6.35;1.40;;;21.50;99.90;;;;;;5030746;28;20518;-68
2023/07/17 11:54:29;;;;;;;6.35;1.45;;;21.50;99.90;;;;;;5030964;28;20518;-68
2023/07/17 11:57:02;;;;;;;7.43;1.20;;;21.50;99.90;;;;;;5009736;28;20041;-67
2023/07/17 11:59:29;;;;;;;3.60;1.38;;;21.60;99.90;;;;;;5023056;28;20168;-67
2023/07/17 12:01:54;;;;;;;;;;;21.80;99.90;;;;;;5026122;28;20042;-67
2023/07/17 12:04:22;;;;;;;3.47;1.10;;;22.00;99.90;;;;;;5025768;28;19924;-68
2023/07/17 12:06:49;;;;;;;6.20;1.77;;;22.20;99.90;;;;;;5030181;28;20057;-68
2023/07/17 12:09:16;;;;;;;3.90;1.25;;;22.30;99.90;;;;;;5000229;28;20053;-67
2023/07/17 12:11:44;;;;;;;5.07;1.23;;;22.50;99.90;;;;;;5012835;28;20095;-67
2023/07/17 12:14:10;;;;;;;3.65;1.08;;;22.50;98.70;;;;;;5008567;28;20045;-68
2023/07/17 12:16:35;;;;;;;;;;;22.60;97.40;;;;;;5030922;28;20247;-67
2023/07/17 12:19:03;;;;;;;4.45;1.20;;;22.60;96.40;;;;;;5030634;28;19917;-68
2023/07/17 12:21:28;;;;;;;2.75;0.93;;;22.50;97.00;;;;;;5025881;28;20056;-68
2023/07/17 12:23:54;;;;;;;;;;;22.50;97.30;;;;;;5030750;28;20108;-67
2023/07/17 12:26:20;;;;;;;2.85;1.13;;;22.60;97.00;;;;;;5026442;28;19929;-67
2023/07/17 12:28:45;;;;;;;;;;;22.70;97.20;;;;;;5012028;28;20081;-67
2023/07/17 12:31:11;;;;;;;2.50;1.17;;;22.70;96.40;;;;;;5030333;28;19948;-67
2023/07/17 12:33:37;;;;;;;5.25;1.67;;;22.80;96.80;;;;;;5030097;28;20037;-68
2023/07/17 12:36:02;;;;;;;;;;;22.80;96.40;;;;;;5030805;28;20041;-67
2023/07/17 12:38:28;;;;;;;4.20;1.20;;;22.80;94.70;;;;;;5030161;28;19932;-68
2023/07/17 12:40:54;;;;;;;;;;;22.70;95.30;;;;;;5030286;28;20128;-68
2023/07/17 12:43:19;;;;;;;3.78;1.00;;;22.70;93.80;;;;;;5029846;28;19956;-68
2023/07/17 12:45:45;;;;;;;5.57;1.30;;;22.70;95.60;;;;;;5029338;28;20037;-67
2023/07/17 12:48:11;;;;;;;;;;;22.70;95.10;;;;;;5030587;28;20132;-68